Time;durP1;ratioP1;P1;durP2;ratioP2;P2;SDS_P1;SDS_P2;PMS_P1;PMS_P2;Temp;Humidity;BMP_temperature;BMP_pressure;BME280_temperature;BME280_humidity;BME280_pressure;Samples;Min_cycle;Max_cycle;Signal;HPM_P1;HPM_P2
2023/10/11 00:01:44;;;;;;;5.43;5.13;;;;;;;;;;4147737;28;20048;-69
2023/10/11 00:03:52;;;;;;;6.63;6.28;;;;;;;;;;4147588;28;20414;-69
2023/10/11 00:05:55;;;;;;;6.05;5.65;;;;;;;;;;4147891;28;20042;-69
2023/10/11 00:07:58;;;;;;;5.43;5.18;;;;;;;;;;4147791;28;20045;-69
2023/10/11 00:10:00;;;;;;;6.05;5.63;;;;;;;;;;4147890;28;20081;-69
2023/10/11 00:12:02;;;;;;;4.97;4.70;;;;;;;;;;4147549;28;20560;-69
2023/10/11 00:14:04;;;;;;;6.05;5.47;;;;;;;;;;4147812;28;20038;-69
2023/10/11 00:16:07;;;;;;;5.47;5.25;;;;;;;;;;4147730;28;20037;-69
2023/10/11 00:18:10;;;;;;;6.68;6.22;;;;;;;;;;4147698;28;20046;-69
2023/10/11 00:20:29;;;;;;;5.38;5.15;;;;;;;;;;4147522;28;20046;-69
2023/10/11 00:22:32;;;;;;;5.60;5.32;;;;;;;;;;4157520;28;20033;-70
2023/10/11 00:24:34;;;;;;;6.30;6.10;;;;;;;;;;4167449;28;20045;-69
2023/10/11 00:26:40;;;;;;;5.60;5.40;;;;;;;;;;4167438;28;20037;-69
2023/10/11 00:28:43;;;;;;;6.32;5.95;;;;;;;;;;4167218;28;20292;-69
2023/10/11 00:30:46;;;;;;;5.25;5.00;;;;;;;;;;4162572;28;20494;-70
2023/10/11 00:32:48;;;;;;;4.82;4.53;;;;;;;;;;4150861;28;20092;-69
2023/10/11 00:34:50;;;;;;;6.32;5.88;;;;;;;;;;4150928;28;20042;-69
2023/10/11 00:36:51;;;;;;;7.53;7.13;;;;;;;;;;4150769;28;20050;-69
2023/10/11 00:38:53;;;;;;;5.63;5.32;;;;;;;;;;4150652;28;20129;-69
2023/10/11 00:41:12;;;;;;;7.07;6.37;;;;;;;;;;4150516;28;20397;-69
2023/10/11 00:43:21;;;;;;;7.80;7.20;;;;;;;;;;4162075;28;20037;-69
2023/10/11 00:45:25;;;;;;;6.10;5.90;;;;;;;;;;4150856;28;20085;-69
2023/10/11 00:47:26;;;;;;;6.90;6.28;;;;;;;;;;4150446;28;20042;-69
2023/10/11 00:49:35;;;;;;;7.32;7.07;;;;;;;;;;4150586;28;20058;-69
2023/10/11 00:51:37;;;;;;;5.72;5.53;;;;;;;;;;4150662;28;20096;-69
2023/10/11 00:53:38;;;;;;;5.25;5.15;;;;;;;;;;4150747;28;20050;-69
2023/10/11 00:55:41;;;;;;;6.20;5.75;;;;;;;;;;4150561;28;20046;-69
2023/10/11 00:57:43;;;;;;;6.95;6.18;;;;;;;;;;4149679;28;20050;-69
2023/10/11 00:59:45;;;;;;;7.03;6.60;;;;;;;;;;4150314;28;20073;-69
2023/10/11 01:01:46;;;;;;;5.95;5.75;;;;;;;;;;4148751;28;20494;-69
2023/10/11 01:03:48;;;;;;;5.83;5.73;;;;;;;;;;4150149;28;20046;-69
2023/10/11 01:05:50;;;;;;;7.28;6.88;;;;;;;;;;4150288;28;20380;-69
2023/10/11 01:07:55;;;;;;;7.72;7.30;;;;;;;;;;4150128;28;20034;-69
2023/10/11 01:09:57;;;;;;;7.60;7.22;;;;;;;;;;4150422;28;20046;-69
2023/10/11 01:11:59;;;;;;;9.05;7.90;;;;;;;;;;4150214;28;20542;-69
2023/10/11 01:14:01;;;;;;;9.07;8.20;;;;;;;;;;4150420;28;20044;-69
2023/10/11 01:16:06;;;;;;;7.68;7.28;;;;;;;;;;4150068;28;20054;-69
2023/10/11 01:18:08;;;;;;;9.55;8.85;;;;;;;;;;4151424;28;20041;-69
2023/10/11 01:20:17;;;;;;;8.38;7.75;;;;;;;;;;4166427;28;20049;-69
2023/10/11 01:22:19;;;;;;;8.35;7.85;;;;;;;;;;4166412;28;20037;-70
2023/10/11 01:24:21;;;;;;;8.07;7.85;;;;;;;;;;4166362;28;20041;-69
2023/10/11 01:26:23;;;;;;;8.18;7.72;;;;;;;;;;4166352;28;20052;-69
2023/10/11 01:28:24;;;;;;;8.88;7.97;;;;;;;;;;4166325;28;20042;-69
2023/10/11 01:30:27;;;;;;;8.07;7.27;;;;;;;;;;4164421;28;20049;-69
2023/10/11 01:32:29;;;;;;;;;;;;;;;;;;4149531;28;20045;-69
2023/10/11 01:34:32;;;;;;;7.35;6.97;;;;;;;;;;4149927;28;19931;-69
2023/10/11 01:36:34;;;;;;;8.23;6.60;;;;;;;;;;4149883;28;20046;-69
2023/10/11 01:38:48;;;;;;;;;;;;;;;;;;4150111;28;20045;-69
2023/10/11 01:40:54;;;;;;;7.03;6.63;;;;;;;;;;4149721;28;19929;-70
2023/10/11 01:42:56;;;;;;;4.40;4.30;;;;;;;;;;4159045;28;20481;-70
2023/10/11 01:44:57;;;;;;;6.15;5.95;;;;;;;;;;4166065;28;20095;-69
2023/10/11 01:47:00;;;;;;;7.68;7.35;;;;;;;;;;4157922;28;20502;-70
2023/10/11 01:49:02;;;;;;;6.28;5.97;;;;;;;;;;4149552;28;20410;-70
2023/10/11 01:51:08;;;;;;;8.75;7.65;;;;;;;;;;4149701;28;20065;-69
2023/10/11 01:53:10;;;;;;;4.53;4.43;;;;;;;;;;4149412;28;20096;-69
2023/10/11 01:55:13;;;;;;;4.17;4.07;;;;;;;;;;4149560;28;20041;-69
2023/10/11 01:57:15;;;;;;;4.47;4.22;;;;;;;;;;4149800;28;20045;-69
2023/10/11 01:59:16;;;;;;;5.00;4.90;;;;;;;;;;4149660;28;20042;-69
2023/10/11 02:01:26;;;;;;;5.47;5.38;;;;;;;;;;4149544;28;20406;-69
2023/10/11 02:03:28;;;;;;;5.13;4.78;;;;;;;;;;4149309;28;20046;-69
2023/10/11 02:05:32;;;;;;;5.90;5.50;;;;;;;;;;4149280;28;20540;-69
2023/10/11 02:07:33;;;;;;;6.03;5.82;;;;;;;;;;4149381;28;20038;-69
2023/10/11 02:09:36;;;;;;;6.38;6.13;;;;;;;;;;4149265;28;20468;-69
2023/10/11 02:11:41;;;;;;;6.15;5.85;;;;;;;;;;4149251;28;20048;-69
2023/10/11 02:13:44;;;;;;;6.30;5.68;;;;;;;;;;4149401;28;20046;-69
2023/10/11 02:15:47;;;;;;;5.13;5.03;;;;;;;;;;4149160;28;20046;-69
2023/10/11 02:17:49;;;;;;;5.95;5.72;;;;;;;;;;4149261;28;20152;-70
2023/10/11 02:19:53;;;;;;;5.90;5.50;;;;;;;;;;4149131;28;20096;-69
2023/10/11 02:21:54;;;;;;;6.45;5.25;;;;;;;;;;4149173;28;20045;-69
2023/10/11 02:23:58;;;;;;;6.00;5.55;;;;;;;;;;4149189;28;20451;-69
2023/10/11 02:26:01;;;;;;;5.90;5.40;;;;;;;;;;4149099;28;20042;-69
2023/10/11 02:28:06;;;;;;;6.20;5.73;;;;;;;;;;4149129;28;20048;-69
2023/10/11 02:30:14;;;;;;;6.38;5.88;;;;;;;;;;4148984;28;20285;-69
2023/10/11 02:32:15;;;;;;;7.07;6.80;;;;;;;;;;4149237;28;20042;-70
2023/10/11 02:34:17;;;;;;;6.43;6.13;;;;;;;;;;4149154;28;20390;-69
2023/10/11 02:36:20;;;;;;;5.85;5.35;;;;;;;;;;4148757;28;20289;-70
2023/10/11 02:38:23;;;;;;;5.93;5.63;;;;;;;;;;4149014;28;20038;-69
2023/10/11 02:40:25;;;;;;;7.05;6.50;;;;;;;;;;4148628;28;20030;-70
2023/10/11 02:42:26;;;;;;;7.05;6.55;;;;;;;;;;4148910;28;20128;-69
2023/10/11 02:44:28;;;;;;;5.90;5.60;;;;;;;;;;4147787;28;20808;-70
2023/10/11 02:46:33;;;;;;;6.40;6.10;;;;;;;;;;4148599;28;20037;-69
2023/10/11 02:48:35;;;;;;;6.03;5.70;;;;;;;;;;4148880;28;20388;-70
2023/10/11 02:50:37;;;;;;;6.17;5.77;;;;;;;;;;4148761;28;20049;-69
2023/10/11 02:52:40;;;;;;;5.68;5.43;;;;;;;;;;4148611;28;20316;-69
2023/10/11 02:54:42;;;;;;;6.05;5.63;;;;;;;;;;4148557;28;20041;-70
2023/10/11 02:56:47;;;;;;;6.10;5.78;;;;;;;;;;4148535;28;20042;-69
2023/10/11 02:58:49;;;;;;;5.22;5.03;;;;;;;;;;4148574;28;20069;-69
2023/10/11 03:00:56;;;;;;;;;;;;;;;;;;4148576;28;20042;-69
2023/10/11 03:03:15;;;;;;;4.47;4.30;;;;;;;;;;4148167;28;20000;-69
2023/10/11 03:05:20;;;;;;;3.13;3.03;;;;;;;;;;4148541;28;20041;-69
2023/10/11 03:07:22;;;;;;;45.65;5.55;;;;;;;;;;4148551;28;20471;-69
2023/10/11 03:09:27;;;;;;;4.82;3.78;;;;;;;;;;4148396;28;20080;-69
2023/10/11 03:11:33;;;;;;;2.55;2.55;;;;;;;;;;4157071;28;20426;-69
2023/10/11 03:13:44;;;;;;;5.03;4.93;;;;;;;;;;4164622;28;20042;-69
2023/10/11 03:15:46;;;;;;;5.20;4.95;;;;;;;;;;4164650;28;20440;-65
2023/10/11 03:17:52;;;;;;;;;;;;;;;;;;4165094;28;20091;-65
2023/10/11 03:19:54;;;;;;;5.97;5.78;;;;;;;;;;4164702;28;19921;-65
2023/10/11 03:21:56;;;;;;;7.13;6.93;;;;;;;;;;4164482;28;20091;-65
2023/10/11 03:24:04;;;;;;;7.28;6.97;;;;;;;;;;4164763;28;20038;-64
2023/10/11 03:26:06;;;;;;;8.13;7.82;;;;;;;;;;4154454;28;20046;-64
2023/10/11 03:28:12;;;;;;;7.82;7.35;;;;;;;;;;4148153;28;20050;-64
2023/10/11 03:30:15;;;;;;;6.47;6.28;;;;;;;;;;4148094;28;20050;-65
2023/10/11 03:32:18;;;;;;;6.45;6.25;;;;;;;;;;4148046;28;20030;-65
2023/10/11 03:34:20;;;;;;;;;;;;;;;;;;4148607;28;20740;-66
2023/10/11 03:36:28;;;;;;;4.55;4.45;;;;;;;;;;4148070;28;19980;-64
2023/10/11 03:38:33;;;;;;;5.68;5.47;;;;;;;;;;4147958;28;20526;-64
2023/10/11 03:40:34;;;;;;;5.88;5.60;;;;;;;;;;4147744;28;20166;-65
2023/10/11 03:42:59;;;;;;;5.55;5.28;;;;;;;;;;4147979;28;20113;-65
2023/10/11 03:45:01;;;;;;;6.65;6.35;;;;;;;;;;4148153;28;20049;-65
2023/10/11 03:47:06;;;;;;;6.55;6.05;;;;;;;;;;4147971;28;20041;-64
2023/10/11 03:51:22;;;;;;;6.43;6.20;;;;;;;;;;4148061;28;20490;-66
2023/10/11 03:53:24;;;;;;;6.72;6.38;;;;;;;;;;4147786;28;20502;-66
2023/10/11 03:55:31;;;;;;;9.00;8.10;;;;;;;;;;4147660;28;20548;-65
2023/10/11 03:57:41;;;;;;;7.00;6.70;;;;;;;;;;4147837;28;20052;-65
2023/10/11 03:59:48;;;;;;;7.72;7.05;;;;;;;;;;4147823;28;20053;-65
2023/10/11 04:01:49;;;;;;;6.60;6.30;;;;;;;;;;4147632;28;20117;-65
2023/10/11 04:03:51;;;;;;;7.03;6.63;;;;;;;;;;4147567;28;20050;-65
2023/10/11 04:05:58;;;;;;;6.38;5.97;;;;;;;;;;4147981;28;20030;-66
2023/10/11 04:08:05;;;;;;;5.65;5.43;;;;;;;;;;4158003;28;20072;-65
2023/10/11 04:10:19;;;;;;;6.10;6.00;;;;;;;;;;4164204;28;20049;-64
2023/10/11 04:12:24;;;;;;;7.03;6.53;;;;;;;;;;4152244;28;20046;-65
2023/10/11 04:14:45;;;;;;;6.05;5.95;;;;;;;;;;4141848;28;20042;-64
2023/10/11 04:16:47;;;;;;;6.18;5.97;;;;;;;;;;4147882;28;20124;-65
2023/10/11 04:18:52;;;;;;;6.23;5.93;;;;;;;;;;4147580;28;20037;-65
2023/10/11 04:21:15;;;;;;;5.55;5.35;;;;;;;;;;4147508;28;20049;-65
2023/10/11 04:23:16;;;;;;;5.03;4.82;;;;;;;;;;4131489;28;20034;-65
2023/10/11 04:25:22;;;;;;;5.67;5.23;;;;;;;;;;4131592;28;20121;-64
2023/10/11 04:29:31;;;;;;;4.17;3.97;;;;;;;;;;4141782;28;20034;-65
2023/10/11 04:31:54;;;;;;;30.02;5.32;;;;;;;;;;4142296;28;20421;-65
2023/10/11 04:33:58;;;;;;;10.75;4.90;;;;;;;;;;4147398;28;20498;-65
2023/10/11 04:36:02;;;;;;;5.55;5.28;;;;;;;;;;4147534;28;20042;-65
2023/10/11 04:38:04;;;;;;;5.95;5.57;;;;;;;;;;4141282;28;20038;-66
2023/10/11 04:42:28;;;;;;;5.43;5.32;;;;;;;;;;4141504;28;20079;-66
2023/10/11 04:44:42;;;;;;;5.80;5.70;;;;;;;;;;4147379;28;20034;-64
2023/10/11 04:46:55;;;;;;;4.93;4.72;;;;;;;;;;4141267;28;20097;-64
2023/10/11 04:49:17;;;;;;;7.22;6.65;;;;;;;;;;4131142;28;20438;-65
2023/10/11 04:51:23;;;;;;;12.15;6.40;;;;;;;;;;4131222;28;20057;-64
2023/10/11 04:53:32;;;;;;;7.00;6.70;;;;;;;;;;4138254;28;20133;-65
2023/10/11 04:55:35;;;;;;;12.00;7.82;;;;;;;;;;4141514;28;20050;-64
2023/10/11 04:57:48;;;;;;;;;;;;;;;;;;4147748;28;20069;-64
2023/10/11 04:59:59;;;;;;;6.80;6.20;;;;;;;;;;4147687;28;19922;-65
2023/10/11 05:02:57;;;;;;;5.97;5.78;;;;;;;;;;4147176;28;20077;-65
2023/10/11 05:04:33;;;;;;;6.68;6.32;;;;;;;;;;4139984;28;20058;-65
2023/10/11 05:06:41;;;;;;;12.02;6.32;;;;;;;;;;4147392;28;20073;-66
2023/10/11 05:08:52;;;;;;;5.55;5.25;;;;;;;;;;4149694;28;20038;-65
2023/10/11 05:10:56;;;;;;;6.22;5.60;;;;;;;;;;4150333;28;20506;-66
2023/10/11 05:13:05;;;;;;;8.02;5.25;;;;;;;;;;4150283;28;20042;-65
2023/10/11 05:15:09;;;;;;;12.80;5.38;;;;;;;;;;4149269;28;20533;-66
2023/10/11 05:19:20;;;;;;;4.15;3.85;;;;;;;;;;4148599;28;20129;-68
2023/10/11 05:21:26;;;;;;;23.52;6.03;;;;;;;;;;4145392;28;20075;-66
2023/10/11 05:23:52;;;;;;;4.78;4.45;;;;;;;;;;4133850;28;20631;-64
2023/10/11 05:25:58;;;;;;;7.30;6.65;;;;;;;;;;4160151;28;20132;-67
2023/10/11 05:32:32;;;;;;;6.63;6.28;;;;;;;;;;4149889;28;20161;-65
2023/10/11 05:34:50;;;;;;;18.75;7.03;;;;;;;;;;4148564;28;20503;-65
2023/10/11 05:50:56;;;;;;;46.22;6.75;;;;;;;;;;4149741;28;20069;-66
2023/10/11 05:52:58;;;;;;;188.25;12.48;;;;;;;;;;4149749;28;20050;-65
2023/10/11 05:55:06;;;;;;;16.27;4.72;;;;;;;;;;4149633;28;20042;-65
2023/10/11 05:57:08;;;;;;;5.50;4.47;;;;;;;;;;4149562;28;20046;-65
2023/10/11 05:59:10;;;;;;;21.45;4.88;;;;;;;;;;4149730;28;20042;-65
2023/10/11 06:01:13;;;;;;;65.95;6.53;;;;;;;;;;4149364;28;20129;-66
2023/10/11 06:03:16;;;;;;;53.70;5.43;;;;;;;;;;4149190;28;20451;-66
2023/10/11 06:05:19;;;;;;;;;;;;;;;;;;4149794;28;20046;-66
2023/10/11 06:07:21;;;;;;;4.72;4.53;;;;;;;;;;4149456;28;19921;-66
2023/10/11 06:09:26;;;;;;;69.45;7.90;;;;;;;;;;4149479;28;20042;-65
2023/10/11 06:11:36;;;;;;;43.70;6.70;;;;;;;;;;4149354;28;20379;-66
2023/10/11 06:13:37;;;;;;;7.40;5.50;;;;;;;;;;4149339;28;20038;-65
2023/10/11 06:15:58;;;;;;;6.10;5.77;;;;;;;;;;4149577;28;20088;-65
2023/10/11 06:18:01;;;;;;;5.57;5.28;;;;;;;;;;4149335;28;20061;-65
2023/10/11 06:21:01;;;;;;;5.50;5.20;;;;;;;;;;4149118;28;20067;-65
2023/10/11 06:22:28;;;;;;;5.25;4.82;;;;;;;;;;4143463;28;20085;-66
2023/10/11 06:24:34;;;;;;;6.70;6.05;;;;;;;;;;4149283;28;20049;-66
2023/10/11 06:28:38;;;;;;;29.75;5.93;;;;;;;;;;4149036;28;20497;-65
2023/10/11 06:30:42;;;;;;;45.37;8.20;;;;;;;;;;4156570;28;20048;-67
2023/10/11 06:32:44;;;;;;;5.82;5.35;;;;;;;;;;4148895;28;20053;-65
2023/10/11 06:34:47;;;;;;;6.40;6.05;;;;;;;;;;4148883;28;20046;-66
2023/10/11 06:36:50;;;;;;;6.60;6.20;;;;;;;;;;4149018;28;20506;-65
2023/10/11 06:38:52;;;;;;;23.67;5.97;;;;;;;;;;4148655;28;20418;-66
2023/10/11 06:41:36;;;;;;;6.18;5.57;;;;;;;;;;4148938;28;20087;-65
2023/10/11 06:43:20;;;;;;;10.10;5.93;;;;;;;;;;4161349;28;20414;-66
2023/10/11 06:45:28;;;;;;;21.45;6.68;;;;;;;;;;4153727;28;20506;-66
2023/10/11 06:47:36;;;;;;;35.13;8.00;;;;;;;;;;4136592;28;20407;-66
2023/10/11 06:49:40;;;;;;;18.70;7.30;;;;;;;;;;4132571;28;20049;-65
2023/10/11 06:51:42;;;;;;;7.60;6.72;;;;;;;;;;4132572;28;20050;-66
2023/10/11 06:53:46;;;;;;;8.40;6.27;;;;;;;;;;4132535;28;20050;-66
2023/10/11 06:55:47;;;;;;;84.28;14.88;;;;;;;;;;4134994;28;20124;-67
2023/10/11 06:57:51;;;;;;;13.00;12.48;;;;;;;;;;4148734;28;20073;-66
2023/10/11 06:59:57;;;;;;;12.77;11.80;;;;;;;;;;4148577;28;20128;-66
2023/10/11 07:01:59;;;;;;;13.20;12.32;;;;;;;;;;4148457;28;20034;-66
2023/10/11 07:04:01;;;;;;;11.02;10.55;;;;;;;;;;4148417;28;20049;-65
2023/10/11 07:06:10;;;;;;;10.00;9.27;;;;;;;;;;4148664;28;20040;-66
2023/10/11 07:08:17;;;;;;;9.50;8.80;;;;;;;;;;4148611;28;20046;-65
2023/10/11 07:10:29;;;;;;;8.75;8.45;;;;;;;;;;4148548;28;20490;-65
2023/10/11 07:12:39;;;;;;;8.35;7.95;;;;;;;;;;4148594;28;20438;-65
2023/10/11 07:14:41;;;;;;;9.10;8.88;;;;;;;;;;4148478;28;20050;-66
2023/10/11 07:16:44;;;;;;;;;;;;;;;;;;4148976;28;20137;-65
2023/10/11 07:18:46;;;;;;;7.93;7.32;;;;;;;;;;4148490;28;19926;-65
2023/10/11 07:20:48;;;;;;;8.45;7.72;;;;;;;;;;4148526;28;20045;-65
2023/10/11 07:22:50;;;;;;;7.45;7.25;;;;;;;;;;4148187;28;20100;-65
2023/10/11 07:25:18;;;;;;;7.57;6.77;;;;;;;;;;4148320;28;20092;-65
2023/10/11 07:27:26;;;;;;;7.57;7.38;;;;;;;;;;4148391;28;20065;-65
2023/10/11 07:29:33;;;;;;;6.80;6.50;;;;;;;;;;4148202;28;20048;-64
2023/10/11 07:31:38;;;;;;;7.63;7.20;;;;;;;;;;4147577;28;20054;-65
2023/10/11 07:33:40;;;;;;;5.50;5.40;;;;;;;;;;4148152;28;20050;-66
2023/10/11 07:35:46;;;;;;;6.25;5.95;;;;;;;;;;4148053;28;20075;-65
2023/10/11 07:37:49;;;;;;;7.03;6.72;;;;;;;;;;4148098;28;20125;-65
2023/10/11 07:39:59;;;;;;;7.53;7.10;;;;;;;;;;4148118;28;20077;-65
2023/10/11 07:42:08;;;;;;;6.13;5.70;;;;;;;;;;4149715;28;20045;-65
2023/10/11 07:44:11;;;;;;;6.45;6.15;;;;;;;;;;4164427;28;20041;-65
2023/10/11 07:46:13;;;;;;;6.55;6.10;;;;;;;;;;4162421;28;20042;-65
2023/10/11 07:48:16;;;;;;;6.05;5.75;;;;;;;;;;4148002;28;20042;-64
2023/10/11 07:50:24;;;;;;;5.30;5.13;;;;;;;;;;4147847;28;20034;-65
2023/10/11 07:52:26;;;;;;;5.60;5.40;;;;;;;;;;4147627;28;20050;-64
2023/10/11 07:54:28;;;;;;;6.13;5.63;;;;;;;;;;4147945;28;20520;-65
2023/10/11 07:56:30;;;;;;;5.70;5.32;;;;;;;;;;4147889;28;20514;-65
2023/10/11 07:58:34;;;;;;;6.45;5.82;;;;;;;;;;4147850;28;20038;-65
2023/10/11 08:00:41;;;;;;;6.38;6.05;;;;;;;;;;4147689;28;20046;-64
2023/10/11 08:02:59;;;;;;;6.28;5.88;;;;;;;;;;4147606;28;20038;-65
2023/10/11 08:05:00;;;;;;;5.55;5.40;;;;;;;;;;4148077;28;20042;-65
2023/10/11 08:07:12;;;;;;;7.57;7.17;;;;;;;;;;4147737;28;20052;-64
2023/10/11 08:09:19;;;;;;;5.53;5.07;;;;;;;;;;4147793;28;20293;-64
2023/10/11 08:11:23;;;;;;;5.07;4.53;;;;;;;;;;4147809;28;20061;-64
2023/10/11 08:13:25;;;;;;;5.70;5.40;;;;;;;;;;4147694;28;20526;-65
2023/10/11 08:15:27;;;;;;;6.22;6.03;;;;;;;;;;4147831;28;20045;-65
2023/10/11 08:17:29;;;;;;;5.85;5.38;;;;;;;;;;4147941;28;20049;-64
2023/10/11 08:19:32;;;;;;;6.20;5.25;;;;;;;;;;4147774;28;20037;-65
2023/10/11 08:21:34;;;;;;;5.15;4.78;;;;;;;;;;4147731;28;20048;-64
2023/10/11 08:23:36;;;;;;;5.15;4.97;;;;;;;;;;4147748;28;20096;-65
2023/10/11 08:25:39;;;;;;;7.05;5.45;;;;;;;;;;4147549;28;20092;-64
2023/10/11 08:27:41;;;;;;;5.72;5.60;;;;;;;;;;4147623;28;20494;-64
2023/10/11 08:29:43;;;;;;;6.57;4.55;;;;;;;;;;4147578;28;20494;-65
2023/10/11 08:32:06;;;;;;;7.07;5.80;;;;;;;;;;4147633;28;20125;-64
2023/10/11 08:34:07;;;;;;;7.80;4.30;;;;;;;;;;4147654;28;20069;-65
2023/10/11 08:36:10;;;;;;;4.53;4.33;;;;;;;;;;4147542;28;20034;-65
2023/10/11 08:38:18;;;;;;;6.60;6.20;;;;;;;;;;4147530;28;20049;-65
2023/10/11 08:40:22;;;;;;;5.30;5.00;;;;;;;;;;4147202;28;20553;-66
2023/10/11 08:42:30;;;;;;;7.82;5.97;;;;;;;;;;4152847;28;20034;-65
2023/10/11 08:44:32;;;;;;;6.22;5.72;;;;;;;;;;4167113;28;20046;-64
2023/10/11 08:46:36;;;;;;;5.72;5.40;;;;;;;;;;4161833;28;20422;-66
2023/10/11 08:48:41;;;;;;;4.75;4.50;;;;;;;;;;4150513;28;20069;-65
2023/10/11 08:50:53;;;;;;;5.47;5.18;;;;;;;;;;4150958;28;20038;-65
2023/10/11 08:52:55;;;;;;;5.07;4.60;;;;;;;;;;4150598;28;20054;-65
2023/10/11 08:54:59;;;;;;;4.70;4.40;;;;;;;;;;4150586;28;20042;-65
2023/10/11 08:57:03;;;;;;;5.60;4.22;;;;;;;;;;4150735;28;20049;-65
2023/10/11 08:59:05;;;;;;;6.07;5.55;;;;;;;;;;4150498;28;20132;-65
2023/10/11 09:01:07;;;;;;;5.15;4.68;;;;;;;;;;4150430;28;20054;-65
2023/10/11 09:03:19;;;;;;;4.78;3.75;;;;;;;;;;4150140;28;20038;-64
2023/10/11 09:05:32;;;;;;;4.70;4.50;;;;;;;;;;4150422;28;20402;-64
2023/10/11 09:07:52;;;;;;;10.68;4.72;;;;;;;;;;4150307;28;20514;-65
2023/10/11 09:09:54;;;;;;;4.45;3.53;;;;;;;;;;4150548;28;20041;-64
2023/10/11 09:11:57;;;;;;;6.43;4.63;;;;;;;;;;4150394;28;20042;-64
2023/10/11 09:14:22;;;;;;;5.88;4.43;;;;;;;;;;4150224;28;20046;-65
2023/10/11 09:16:37;;;;;;;4.35;4.00;;;;;;;;;;4150434;28;20042;-66
2023/10/11 09:18:39;;;;;;;4.45;3.33;;;;;;;;;;4150152;28;20124;-65
2023/10/11 09:20:43;;;;;;;3.95;3.65;;;;;;;;;;4150083;28;20049;-65
2023/10/11 09:22:45;;;;;;;3.30;3.05;;;;;;;;;;4149972;28;20041;-64
2023/10/11 09:25:02;;;;;;;3.67;3.25;;;;;;;;;;4165270;28;20660;-65
2023/10/11 09:29:23;;;;;;;3.22;3.08;;;;;;;;;;4150098;28;20037;-65
2023/10/11 09:31:26;;;;;;;4.05;3.55;;;;;;;;;;4149933;28;20038;-66
2023/10/11 09:33:34;;;;;;;5.22;3.50;;;;;;;;;;4149793;28;20037;-64
2023/10/11 09:35:36;;;;;;;3.97;3.55;;;;;;;;;;4149858;28;20048;-64
2023/10/11 09:37:38;;;;;;;6.60;3.30;;;;;;;;;;4150130;28;20042;-64
2023/10/11 09:39:43;;;;;;;5.60;2.90;;;;;;;;;;4149562;28;20116;-64
2023/10/11 09:41:45;;;;;;;2.90;2.75;;;;;;;;;;4149863;28;20132;-64
2023/10/11 09:43:48;;;;;;;4.72;3.08;;;;;;;;;;4133595;28;20051;-64
2023/10/11 09:45:53;;;;;;;13.40;4.30;;;;;;;;;;4146389;28;20490;-64
2023/10/11 09:47:56;;;;;;;6.32;3.50;;;;;;;;;;4148477;28;20045;-65
2023/10/11 09:49:59;;;;;;;6.22;3.15;;;;;;;;;;4149737;28;20045;-64
2023/10/11 09:52:07;;;;;;;7.60;3.33;;;;;;;;;;4149595;28;20104;-65
2023/10/11 09:54:12;;;;;;;3.83;3.17;;;;;;;;;;4149378;28;20073;-65
2023/10/11 09:56:35;;;;;;;4.28;2.47;;;;;;;;;;4149600;28;20050;-65
2023/10/11 09:58:36;;;;;;;2.53;2.15;;;;;;;;;;4149541;28;20524;-66
2023/10/11 10:00:40;;;;;;;3.38;2.65;;;;;;;;;;4149426;28;20054;-65
2023/10/11 10:02:46;;;;;;;3.85;2.95;;;;;;;;;;4148132;28;20080;-65
2023/10/11 10:04:51;;;;;;;2.10;2.00;;;;;;;;;;4149595;28;20154;-64
2023/10/11 10:07:12;;;;;;;2.85;2.03;;;;;;;;;;4149169;28;20469;-64
2023/10/11 10:09:22;;;;;;;1.83;1.73;;;;;;;;;;4149429;28;20459;-65
2023/10/11 10:11:25;;;;;;;2.63;1.80;;;;;;;;;;4149367;28;20399;-65
2023/10/11 10:13:27;;;;;;;3.90;2.05;;;;;;;;;;4149607;28;20054;-66
2023/10/11 10:15:33;;;;;;;3.15;2.88;;;;;;;;;;4149360;28;20502;-65
2023/10/11 10:17:37;;;;;;;2.70;2.50;;;;;;;;;;4149211;28;20510;-65
2023/10/11 10:19:40;;;;;;;2.95;2.45;;;;;;;;;;4149372;28;20038;-65
2023/10/11 10:22:00;;;;;;;2.88;2.63;;;;;;;;;;4149184;28;20052;-65
2023/10/11 10:24:22;;;;;;;6.53;2.60;;;;;;;;;;4148988;28;20050;-64
2023/10/11 10:26:28;;;;;;;2.40;2.20;;;;;;;;;;4149090;28;20568;-65
2023/10/11 10:28:36;;;;;;;4.82;3.00;;;;;;;;;;4149123;28;20038;-66
2023/10/11 10:30:57;;;;;;;2.00;1.90;;;;;;;;;;4148717;28;20409;-65
2023/10/11 10:33:18;;;;;;;7.60;2.30;;;;;;;;;;4147639;28;20505;-65
2023/10/11 10:35:24;;;;;;;5.25;2.33;;;;;;;;;;4143196;28;20045;-65
2023/10/11 10:37:56;;;;;;;6.10;2.35;;;;;;;;;;4146714;28;20514;-65
2023/10/11 10:40:24;;;;;;;3.30;1.97;;;;;;;;;;4148363;28;20058;-65
2023/10/11 10:42:27;;;;;;;3.22;2.40;;;;;;;;;;4164904;28;20296;-65
2023/10/11 10:44:29;;;;;;;2.63;2.25;;;;;;;;;;4165267;28;20073;-64
2023/10/11 10:46:34;;;;;;;3.28;2.65;;;;;;;;;;4156818;28;20046;-64
2023/10/11 10:48:43;;;;;;;2.55;2.22;;;;;;;;;;4140360;28;20038;-65
2023/10/11 10:51:04;;;;;;;3.45;2.55;;;;;;;;;;4147043;28;20042;-65
2023/10/11 10:53:06;;;;;;;2.35;2.25;;;;;;;;;;4148956;28;20100;-65
2023/10/11 10:55:08;;;;;;;2.58;2.08;;;;;;;;;;4146733;28;20042;-64
2023/10/11 10:57:10;;;;;;;3.38;2.00;;;;;;;;;;4140735;28;20056;-65
2023/10/11 10:59:12;;;;;;;3.63;2.42;;;;;;;;;;4143096;28;20037;-65
2023/10/11 11:01:24;;;;;;;4.80;2.45;;;;;;;;;;4143665;28;20041;-65
2023/10/11 11:03:31;;;;;;;4.53;2.10;;;;;;;;;;4145718;28;20081;-67
2023/10/11 11:05:39;;;;;;;2.15;2.00;;;;;;;;;;4142098;28;20761;-69
2023/10/11 11:07:47;;;;;;;2.80;1.83;;;;;;;;;;4132385;28;20038;-69
2023/10/11 11:09:54;;;;;;;2.03;1.70;;;;;;;;;;4132347;28;20043;-69
2023/10/11 11:12:09;;;;;;;4.50;1.50;;;;;;;;;;4141981;28;20119;-69
2023/10/11 11:14:14;;;;;;;6.00;2.08;;;;;;;;;;4137067;28;20038;-70
2023/10/11 11:16:17;;;;;;;1.40;1.30;;;;;;;;;;4142186;28;20046;-69
2023/10/11 11:18:30;;;;;;;2.75;1.60;;;;;;;;;;4132130;28;20050;-70
2023/10/11 11:20:33;;;;;;;3.30;1.65;;;;;;;;;;4134160;28;20109;-70
2023/10/11 11:22:38;;;;;;;2.03;1.92;;;;;;;;;;4146101;28;20050;-69
2023/10/11 11:24:43;;;;;;;2.13;1.60;;;;;;;;;;4143471;28;20490;-71
2023/10/11 11:26:45;;;;;;;5.60;1.85;;;;;;;;;;4148517;28;20125;-69
2023/10/11 11:28:48;;;;;;;2.78;1.52;;;;;;;;;;4148155;28;20041;-70
2023/10/11 11:31:03;;;;;;;2.25;1.30;;;;;;;;;;4148052;28;20065;-70
2023/10/11 11:33:19;;;;;;;5.55;1.80;;;;;;;;;;4146753;28;20501;-69
2023/10/11 11:35:31;;;;;;;2.17;2.08;;;;;;;;;;4147511;28;20033;-69
2023/10/11 11:37:38;;;;;;;6.22;1.58;;;;;;;;;;4140831;28;20037;-70
2023/10/11 11:39:50;;;;;;;2.75;1.45;;;;;;;;;;4141353;28;20073;-70
2023/10/11 11:41:55;;;;;;;3.33;1.57;;;;;;;;;;4143038;28;20553;-70
2023/10/11 11:44:03;;;;;;;4.40;1.83;;;;;;;;;;4148382;28;20046;-70
2023/10/11 11:46:05;;;;;;;1.67;1.10;;;;;;;;;;4145701;28;20046;-70
2023/10/11 11:48:07;;;;;;;2.67;1.38;;;;;;;;;;4146464;28;20045;-69
2023/10/11 11:50:18;;;;;;;4.07;1.70;;;;;;;;;;4144432;28;20034;-70
2023/10/11 11:52:19;;;;;;;3.15;1.50;;;;;;;;;;4144262;28;20038;-70
2023/10/11 11:54:28;;;;;;;3.75;1.65;;;;;;;;;;4147951;28;20054;-70
2023/10/11 11:56:30;;;;;;;3.83;1.23;;;;;;;;;;4147845;28;20045;-70
2023/10/11 11:58:32;;;;;;;3.33;1.48;;;;;;;;;;4148001;28;20056;-70
2023/10/11 12:00:39;;;;;;;1.45;1.25;;;;;;;;;;4147628;28;20097;-69
2023/10/11 12:02:41;;;;;;;4.70;1.95;;;;;;;;;;4147585;28;20402;-69
2023/10/11 12:04:48;;;;;;;1.65;1.55;;;;;;;;;;4146576;28;20038;-70
2023/10/11 12:06:50;;;;;;;1.92;1.63;;;;;;;;;;4147876;28;20046;-70
2023/10/11 12:08:59;;;;;;;3.97;1.70;;;;;;;;;;4147795;28;20045;-70
2023/10/11 12:11:01;;;;;;;1.20;1.00;;;;;;;;;;4147817;28;20034;-70
2023/10/11 12:13:05;;;;;;;3.35;1.20;;;;;;;;;;4147720;28;20056;-70
2023/10/11 12:15:16;;;;;;;1.45;1.10;;;;;;;;;;4144483;28;20038;-69
2023/10/11 12:17:18;;;;;;;2.28;1.20;;;;;;;;;;4145756;28;20038;-70
2023/10/11 12:19:20;;;;;;;6.65;1.40;;;;;;;;;;4147591;28;20417;-70
2023/10/11 12:21:21;;;;;;;2.58;1.00;;;;;;;;;;4147615;28;20161;-70
2023/10/11 12:23:23;;;;;;;2.45;1.20;;;;;;;;;;4146522;28;20045;-70
2023/10/11 12:25:25;;;;;;;4.68;1.20;;;;;;;;;;4131771;28;20505;-69
2023/10/11 12:27:26;;;;;;;1.77;1.42;;;;;;;;;;4131439;28;20042;-70
2023/10/11 12:29:28;;;;;;;2.55;1.10;;;;;;;;;;4138399;28;20469;-70
2023/10/11 12:31:30;;;;;;;1.40;1.30;;;;;;;;;;4147602;28;20053;-69
2023/10/11 12:33:33;;;;;;;1.92;1.83;;;;;;;;;;4147357;28;20045;-70
2023/10/11 12:35:41;;;;;;;2.38;1.23;;;;;;;;;;4147756;28;20118;-70
2023/10/11 12:37:43;;;;;;;3.92;1.50;;;;;;;;;;4147467;28;20050;-70
2023/10/11 12:39:44;;;;;;;;;;;;;;;;;;4141382;28;20042;-66
2023/10/11 12:41:55;;;;;;;1.27;1.17;;;;;;;;;;4147903;28;19921;-65
2023/10/11 12:43:56;;;;;;;8.65;7.53;;;;;;;;;;4130929;28;20129;-62
2023/10/11 12:46:01;;;;;;;1.63;1.52;;;;;;;;;;4130328;28;20050;-62
2023/10/11 12:48:06;;;;;;;1.25;1.02;;;;;;;;;;4136605;28;20121;-62
2023/10/11 12:50:09;;;;;;;2.30;1.83;;;;;;;;;;4147424;28;20049;-62
2023/10/11 12:52:16;;;;;;;;;;;;;;;;;;4147859;28;20034;-62
2023/10/11 12:54:19;;;;;;;1.52;1.42;;;;;;;;;;4147564;28;19922;-63
2023/10/11 12:56:22;;;;;;;1.33;1.15;;;;;;;;;;4147415;28;20085;-62
2023/10/11 12:58:39;;;;;;;3.40;1.30;;;;;;;;;;4147544;28;20050;-62
2023/10/11 13:01:25;;;;;;;2.92;1.20;;;;;;;;;;4147173;28;20053;-62
2023/10/11 13:03:18;;;;;;;2.65;1.50;;;;;;;;;;4146103;28;20050;-62
2023/10/11 13:05:20;;;;;;;1.65;1.20;;;;;;;;;;4147171;28;20046;-62
2023/10/11 13:07:26;;;;;;;3.17;1.08;;;;;;;;;;4147544;28;20096;-62
2023/10/11 13:09:28;;;;;;;2.78;1.20;;;;;;;;;;4147266;28;20453;-62